Flight Track Log - Related Links

Times and Time Zones

All times are in EDT time to prevent confusion due to time zone crossing. See the EJA951 flight status page for this flight to view local times or setup timezone preferences in your user account.

Time Position Orientation Groundspeed Altitude Reporting Facility
EDT Latitude Longitude Course Direction KTS MPH feet Rate Location/Type
Sun 06:29:46 PM 35.8561 -78.8083 216° Southwest 185 213 1,300  Level Washington Center
Sun 06:30:10 PM 35.8369 -78.8256 216° Southwest 192 221 3,100 3,600 Climbing Washington Center
Sun 06:31:11 PM 35.8247 -78.8942 258° West 230 265 6,400 1,934 Climbing Washington Center
Sun 06:32:11 PM 35.8686 -78.9678 306° West 279 321 7,000 500 Climbing Washington Center
Sun 06:33:11 PM 35.9408 -78.9939 344° North 282 325 7,400 1,843 Climbing Washington Center
Sun 06:34:18 PM 36.0286 -78.9900 North 296 341 10,900 1,714 Climbing Washington Center
Sun 06:35:17 PM 36.1083 -78.9008 42° Northeast 307 353 11,000 248 Climbing Washington Center
Sun 06:36:19 PM 36.1794 -78.8139 45° Northeast 373 429 11,400 1,059 Climbing Washington Center
Sun 06:37:16 PM 36.2656 -78.7169 42° Northeast 407 468 13,100 1,983 Climbing Washington Center
Sun 06:38:17 PM 36.3661 -78.6150 39° Northeast 412 474 15,300 1,983 Climbing Washington Center
Sun 06:39:17 PM 36.4758 -78.5728 17° North 410 472 17,100 1,884 Climbing Washington Center
Sun 06:40:18 PM 36.5917 -78.5306 16° North 410 472 19,100 1,884 Climbing Washington Center
Sun 06:41:18 PM 36.7094 -78.4858 17° North 428 493 20,900 1,831 Climbing Washington Center
Sun 06:42:16 PM 36.8133 -78.4222 26° Northeast 434 499 22,700 1,932 Climbing Washington Center
Sun 06:43:16 PM 36.9258 -78.3303 33° Northeast 461 531 24,700 2,033 Climbing Washington Center
Sun 06:44:17 PM 37.0536 -78.2231 34° Northeast 483 556 26,800 1,884 Climbing Washington Center
Sun 06:45:17 PM 37.1597 -78.1353 33° Northeast 498 573 28,500 1,091 Climbing Washington Center
Sun 06:46:18 PM 37.2828 -78.0350 33° Northeast 511 588 29,000 248 Climbing Washington Center
Sun 06:47:18 PM 37.4164 -77.9242 33° Northeast 541 623 29,000  Level Washington Center
Sun 06:48:16 PM 37.5522 -77.8081 34° Northeast 566 651 29,000  Level Washington Center
Sun 06:49:17 PM 37.6878 -77.6858 35° Northeast 582 670 29,000  Level Washington Center
Sun 06:50:17 PM 37.8192 -77.5661 36° Northeast 589 678 29,000  Level Washington Center
Sun 06:51:18 PM 37.9506 -77.4431 36° Northeast 589 678 29,000  Level Washington Center
Sun 06:52:16 PM 38.0836 -77.3250 35° Northeast 589 678 29,000  Level Washington Center
Sun 06:53:17 PM 38.2189 -77.2011 36° Northeast 589 678 29,000  Level Washington Center
Sun 06:54:18 PM 38.3497 -77.0797 36° Northeast 595 685 29,000  Level Washington Center
Sun 06:55:17 PM 38.4844 -76.9522 37° Northeast 595 685 29,000  Level Washington Center
Sun 06:56:17 PM 38.6194 -76.8272 36° Northeast 595 685 29,000  Level Washington Center
Sun 06:57:18 PM 38.7456 -76.6989 38° Northeast 595 685 29,000  Level Washington Center
Sun 06:58:18 PM 38.8700 -76.5542 42° Northeast 590 679 29,000 -508 Level Washington Center
Sun 06:59:16 PM 38.9897 -76.4169 42° Northeast 585 673 28,000 -2,067 Descending Washington Center
Sun 07:00:17 PM 39.1094 -76.2764 42° Northeast 580 667 24,900 -1,983 Descending Washington Center
Sun 07:01:17 PM 39.2436 -76.1275 41° Northeast 575 662 24,000 -446 Descending Washington Center
Sun 07:02:18 PM 39.3692 -76.0022 38° Northeast 570 656 24,000 -2,200 Level Washington Center
Sun 07:04:47 PM 39.6667 -75.7167 36° Northeast 457 526 16,300 -3,100 Descending Philadelphia TRACON
Sun 07:05:47 PM 39.7667 -75.6167 38° Northeast 441 507 13,200 -1,650 Descending Philadelphia TRACON
Sun 07:06:47 PM 39.8667 -75.5333 33° Northeast 439 505 13,000 -100 Descending Philadelphia TRACON
Sun 07:07:47 PM 39.9667 -75.4500 33° Northeast 450 518 13,000 50 Level Philadelphia TRACON
Sun 07:08:47 PM 40.0667 -75.3500 37° Northeast 450 518 13,100 -143 Climbing Philadelphia TRACON
Sun 07:09:53 PM 40.1667 -75.2500 37° Northeast 406 467 12,700 -1,095 Descending Philadelphia TRACON
Sun 07:10:53 PM 40.2667 -75.1667 32° Northeast 358 412 10,800 -1,834 Descending Philadelphia TRACON
Sun 07:12:30 PM 40.3667 -75.0500 42° Northeast 286 329 7,900 -1,643 Descending New York TRACON
Sun 07:13:30 PM 40.4167 -74.9833 45° Northeast 291 335 6,500 -1,350 Descending New York TRACON
Sun 07:14:30 PM 40.4667 -74.9000 52° Northeast 285 328 5,200 -1,250 Descending New York TRACON
Sun 07:15:30 PM 40.5167 -74.8333 45° Northeast 280 322 4,000 -600 Descending New York TRACON
Sun 07:16:30 PM 40.5833 -74.7500 43° Northeast 280 322 4,000  Level New York TRACON
Sun 07:17:30 PM 40.6333 -74.6833 45° Northeast 275 316 4,000  Level New York TRACON
Sun 07:18:30 PM 40.7000 -74.6333 30° Northeast 270 311 4,000 -50 Level New York TRACON
Sun 07:19:30 PM 40.7667 -74.5833 30° Northeast 269 310 3,900 -100 Descending New York TRACON
Sun 07:20:30 PM 40.8000 -74.5167 57° Northeast 236 272 3,800 -450 Descending New York TRACON
Sun 07:21:30 PM 40.8500 -74.4500 45° Northeast 237 273 3,000 -450 Descending New York TRACON
Sun 07:22:30 PM 40.8833 -74.3833 57° Northeast 242 278 2,900 -50 Descending New York TRACON
Sun 07:23:30 PM 40.9333 -74.3167 45° Northeast 236 272 2,900 -250 Level New York TRACON
Sun 07:24:30 PM 40.9667 -74.2500 56° Northeast 212 244 2,400 -500 Descending New York TRACON
Sun 07:25:30 PM 41.0000 -74.1833 56° Northeast 210 242 1,900 -200 Descending New York TRACON
Sun 07:26:30 PM 41.0167 -74.1167 72° East 212 244 2,000  Climbing New York TRACON
Sun 07:27:30 PM 40.9833 -74.0500 124° Southeast 216 249 1,900 -150 Descending New York TRACON
Sun 07:28:30 PM 40.9333 -74.0500 180° South 165 190 1,700 -500 Descending New York TRACON
Sun 07:29:30 PM 40.9000 -74.0167 143° Southeast 161 185 900 -650 Descending New York TRACON
Sun 07:30:30 PM 40.8667 -74.0333 201° Southwest 127 146 400 -500 Descending New York TRACON

Login

Don't have an account? Register now (free) for customized features, flight alerts, and more!